createdAt,value
2018-02-24T12:45:35.656Z,27.95
2018-02-24T12:50:50.160Z,27.16
2018-02-24T12:55:52.648Z,27.39
2018-02-24T13:00:55.113Z,27.96
2018-02-24T13:05:57.574Z,28.02
2018-02-24T13:11:00.047Z,28.64
2018-02-24T13:16:02.613Z,28.01
2018-02-24T13:21:05.102Z,27.78
2018-02-24T13:26:07.581Z,28.38
2018-02-24T13:31:10.053Z,28.75
2018-02-24T13:36:12.525Z,28.59
2018-02-24T13:41:14.994Z,28.55
2018-02-24T13:46:17.532Z,28.53
2018-02-24T13:51:20.005Z,28.77
2018-02-24T13:56:22.498Z,28.97
2018-02-24T14:01:24.981Z,29.49
2018-02-24T14:06:27.461Z,29.84
2018-02-24T14:11:29.994Z,29.59
2018-02-24T14:16:41.531Z,29.18
2018-02-24T14:21:44.015Z,29.96
2018-02-24T14:26:46.501Z,30.77
2018-02-24T14:31:48.995Z,31.25
2018-02-24T14:36:52.414Z,31.71
2018-02-24T14:41:54.903Z,30.49
2018-02-24T14:46:57.392Z,31.19
2018-02-24T14:51:59.912Z,31.98
2018-02-24T14:57:02.510Z,31.54
2018-02-24T15:02:05.044Z,31.24
2018-02-24T15:07:07.524Z,31.25
2018-02-24T15:12:09.996Z,30.78
2018-02-24T15:17:12.498Z,31.32
2018-02-24T15:22:15.092Z,31.84
2018-02-24T15:27:17.594Z,31.67
2018-02-24T15:32:20.096Z,32.04
2018-02-24T15:37:22.578Z,32.07
2018-02-24T15:42:25.065Z,32.19
2018-02-24T15:47:28.010Z,32.65
2018-02-24T15:52:30.484Z,32.75
2018-02-24T15:57:32.958Z,32.80
2018-02-24T16:02:35.527Z,32.89
2018-02-24T16:07:38.005Z,33.05
2018-02-24T16:12:40.524Z,33.88
2018-02-24T16:17:43.923Z,34.42
2018-02-24T16:22:46.514Z,34.69
2018-02-24T16:27:48.994Z,34.48
2018-02-24T16:32:51.481Z,34.39
2018-02-24T16:37:53.964Z,34.90
2018-02-24T16:42:56.437Z,35.39
2018-02-24T16:47:58.973Z,35.50
2018-02-24T16:53:01.618Z,36.09
2018-02-24T16:58:04.873Z,35.89
2018-02-24T17:03:07.362Z,35.55
2018-02-24T17:08:09.884Z,35.60
2018-02-24T17:13:12.441Z,35.88
2018-02-24T17:18:14.945Z,36.25
2018-02-24T17:23:17.436Z,36.31
2018-02-24T17:28:20.019Z,36.25
2018-02-24T17:33:22.507Z,36.26
2018-02-24T17:38:24.988Z,35.93
2018-02-24T17:43:27.458Z,36.28
2018-02-24T17:48:29.936Z,36.48
2018-02-24T17:53:32.408Z,36.92
2018-02-24T17:58:34.913Z,36.52
2018-02-24T18:03:37.410Z,36.99
2018-02-24T18:08:39.918Z,37.05
2018-02-24T18:13:42.411Z,37.45
2018-02-24T18:18:44.988Z,37.65
2018-02-24T18:23:47.515Z,38.14
2018-02-24T18:28:49.976Z,38.27
2018-02-24T18:33:52.492Z,38.43
2018-02-24T18:38:54.993Z,38.16
2018-02-24T18:43:57.484Z,38.57
2018-02-24T18:48:59.994Z,38.59
2018-02-24T18:54:02.466Z,39.14
2018-02-24T18:59:04.978Z,39.04
2018-02-24T19:04:07.453Z,39.07
2018-02-24T19:09:10.106Z,38.66
2018-02-24T19:14:12.582Z,38.71
2018-02-24T19:19:15.112Z,38.79
2018-02-24T19:24:17.593Z,39.46
2018-02-24T19:29:20.088Z,39.28
2018-02-24T19:34:22.631Z,39.08
2018-02-24T19:39:25.128Z,38.65
2018-02-24T19:44:28.319Z,38.76
2018-02-24T19:49:30.793Z,38.99
2018-02-24T19:54:33.279Z,38.74
2018-02-24T19:59:35.752Z,38.97
2018-02-24T20:04:38.290Z,39.44
2018-02-24T20:09:40.796Z,39.61
2018-02-24T20:14:43.352Z,38.78
2018-02-24T20:19:45.869Z,38.62
2018-02-24T20:24:48.363Z,39.26
2018-02-24T20:29:50.878Z,38.67
2018-02-24T20:34:53.585Z,39.03
2018-02-24T20:39:56.070Z,39.06
2018-02-24T20:44:58.578Z,39.06
2018-02-24T20:50:01.062Z,39.17
2018-02-24T20:55:03.563Z,39.65
2018-02-24T21:00:06.025Z,39.89
2018-02-24T21:05:08.610Z,39.82
2018-02-24T21:10:11.083Z,40.16
2018-02-24T21:15:13.583Z,40.83
2018-02-24T21:20:16.072Z,40.57
2018-02-24T21:25:18.585Z,40.28
2018-02-24T21:30:21.060Z,40.56
2018-02-24T21:35:23.586Z,40.73
2018-02-24T21:40:26.173Z,41.11
2018-02-24T21:45:28.664Z,41.28
2018-02-24T21:50:31.126Z,41.69
2018-02-24T21:55:33.618Z,41.87
2018-02-24T22:00:36.113Z,42.10
2018-02-24T22:05:38.588Z,41.75
2018-02-24T22:10:41.067Z,42.09
2018-02-24T22:15:43.543Z,42.62
2018-02-24T22:20:46.045Z,42.37
2018-02-24T22:25:48.532Z,42.71
2018-02-24T22:30:51.009Z,42.71
2018-02-24T22:35:53.522Z,43.33
2018-02-24T22:40:56.014Z,43.56
2018-02-24T22:45:58.501Z,43.08
2018-02-24T22:51:01.046Z,42.59
2018-02-24T22:56:03.532Z,43.03
2018-02-24T23:01:06.003Z,42.97
2018-02-24T23:06:08.501Z,43.22
2018-02-24T23:11:10.981Z,43.29
2018-02-24T23:16:13.441Z,43.10
2018-02-24T23:21:16.444Z,43.48
2018-02-24T23:26:18.918Z,44.14
2018-02-24T23:31:21.397Z,44.25
2018-02-24T23:36:23.883Z,44.22
2018-02-24T23:41:26.366Z,44.32
2018-02-24T23:46:28.874Z,44.57
2018-02-24T23:51:31.387Z,44.86
2018-02-24T23:56:33.884Z,45.03
